Time;durP1;ratioP1;P1;durP2;ratioP2;P2;SDS_P1;SDS_P2;PMS_P1;PMS_P2;Temp;Humidity;BMP_temperature;BMP_pressure;BME280_temperature;BME280_humidity;BME280_pressure;Samples;Min_cycle;Max_cycle;Signal;HPM_P1;HPM_P2
2024/02/11 00:00:13;;;;;;;;;9.00;3.75;;;;;9.46;85.50;98245.75;5054795;28;45309;-64
2024/02/11 00:02:38;;;;;;;;;4.50;2.75;;;;;9.44;85.63;98245.03;5039024;28;45553;-65
2024/02/11 00:05:07;;;;;;;;;10.50;4.00;;;;;9.45;85.41;98247.50;5038016;28;72117;-64
2024/02/11 00:07:37;;;;;;;;;10.00;3.50;;;;;9.45;85.75;98247.50;5038946;28;45300;-64
2024/02/11 00:10:07;;;;;;;;;5.50;3.00;;;;;9.46;85.43;98246.59;5039373;28;45177;-64
2024/02/11 00:12:32;;;;;;;;;10.75;5.00;;;;;9.49;85.38;98255.97;5038910;28;45522;-64
2024/02/11 00:14:58;;;;;;;;;13.50;3.75;;;;;9.49;85.69;98258.59;5039392;28;45483;-66
2024/02/11 00:17:23;;;;;;;;;6.50;3.75;;;;;9.54;86.00;98256.53;5038369;28;54059;-64
2024/02/11 00:19:48;;;;;;;;;8.00;5.00;;;;;9.57;85.94;98266.78;5054094;28;58423;-65
2024/02/11 00:22:14;;;;;;;;;12.25;4.25;;;;;9.60;85.86;98260.56;5038008;28;65034;-65
2024/02/11 00:24:39;;;;;;;;;12.25;4.25;;;;;9.59;85.72;98253.66;5054178;28;51544;-65
2024/02/11 00:27:05;;;;;;;;;5.50;4.25;;;;;9.66;85.69;98261.00;5071171;28;45363;-64
2024/02/11 00:29:30;;;;;;;;;9.25;5.00;;;;;9.67;85.52;98265.28;5038531;28;45334;-65
2024/02/11 00:31:57;;;;;;;;;8.75;3.75;;;;;9.71;85.53;98260.72;5041859;28;45359;-64
2024/02/11 00:34:22;;;;;;;;;6.25;4.25;;;;;9.72;85.25;98262.41;5038849;28;47034;-64
2024/02/11 00:36:49;;;;;;;;;5.50;4.00;;;;;9.72;85.53;98266.75;5038665;28;45290;-64
2024/02/11 00:39:14;;;;;;;;;5.50;4.25;;;;;9.73;85.29;98263.22;5041478;28;45480;-63
2024/02/11 00:41:40;;;;;;;;;7.00;4.00;;;;;9.73;85.63;98264.06;5038262;28;45239;-64
2024/02/11 00:44:08;;;;;;;;;3.75;3.00;;;;;9.74;85.51;98257.91;5041775;28;46163;-65
2024/02/11 00:46:34;;;;;;;;;5.75;3.00;;;;;9.75;85.30;98266.59;5041881;28;45364;-65
2024/02/11 00:49:00;;;;;;;;;5.00;5.00;;;;;9.73;85.23;98261.44;5047498;28;45610;-65
2024/02/11 00:51:27;;;;;;;;;9.00;3.50;;;;;9.74;85.14;98260.53;5045823;28;45530;-65
2024/02/11 00:53:52;;;;;;;;;6.25;5.00;;;;;9.74;85.24;98255.31;5041694;28;46083;-65
2024/02/11 00:56:20;;;;;;;;;4.50;4.00;;;;;9.75;84.99;98267.41;5040892;28;73510;-65
2024/02/11 00:58:45;;;;;;;;;11.00;4.25;;;;;9.77;85.18;98262.09;5041961;28;45419;-63
2024/02/11 01:01:11;;;;;;;;;7.00;4.75;;;;;9.80;85.23;98267.13;5041667;28;45260;-64
2024/02/11 01:03:37;;;;;;;;;4.25;3.00;;;;;9.82;84.85;98260.84;5041629;28;46063;-64
2024/02/11 01:06:03;;;;;;;;;6.50;3.00;;;;;9.83;85.03;98259.94;5043991;28;45465;-64
2024/02/11 01:08:28;;;;;;;;;8.50;3.25;;;;;9.84;84.71;98264.25;5040547;28;45460;-64
2024/02/11 01:10:53;;;;;;;;;7.75;4.75;;;;;9.86;84.71;98264.09;5039265;28;69952;-64
2024/02/11 01:13:19;;;;;;;;;8.00;4.50;;;;;9.86;85.00;98264.09;5040558;28;70319;-64
2024/02/11 01:15:44;;;;;;;;;6.75;3.25;;;;;9.87;84.61;98269.25;5039160;28;67854;-65
2024/02/11 01:18:11;;;;;;;;;4.50;4.00;;;;;9.87;84.80;98274.47;5041646;28;45413;-64
2024/02/11 01:20:36;;;;;;;;;9.50;3.25;;;;;9.89;84.80;98266.53;5041519;28;45407;-64
2024/02/11 01:23:02;;;;;;;;;12.00;3.75;;;;;9.91;84.47;98266.44;5042137;28;46292;-64
2024/02/11 01:25:28;;;;;;;;;10.25;4.00;;;;;9.92;84.62;98273.34;5041436;28;45235;-65
2024/02/11 01:27:53;;;;;;;;;6.00;3.25;;;;;9.90;84.88;98265.63;5056795;28;45243;-64
2024/02/11 01:30:19;;;;;;;;;5.00;4.00;;;;;9.84;84.58;98260.75;5047315;28;45228;-64
2024/02/11 01:32:44;;;;;;;;;6.25;3.75;;;;;9.83;84.72;98270.38;5041125;28;46104;-64
2024/02/11 01:35:12;;;;;;;;;4.00;3.00;;;;;9.82;84.94;98267.88;5073665;28;45697;-64
2024/02/11 01:37:40;;;;;;;;;4.75;2.25;;;;;9.82;84.98;98273.09;5041306;28;45374;-65
2024/02/11 01:40:17;;;;;;;;;4.75;3.75;;;;;9.82;84.71;98266.09;5075073;27;45552;-64
2024/02/11 01:42:45;;;;;;;;;3.75;3.75;;;;;9.81;84.98;98253.13;5031590;28;46331;-65
2024/02/11 01:45:12;;;;;;;;;9.75;3.25;;;;;9.80;84.95;98260.13;5040956;28;45811;-65
2024/02/11 01:47:37;;;;;;;;;7.25;2.00;;;;;9.81;85.30;98259.19;5050029;28;45493;-65
2024/02/11 01:50:08;;;;;;;;;4.00;2.00;;;;;9.84;84.95;98269.47;5039726;28;74590;-64
2024/02/11 01:52:34;;;;;;;;;5.75;3.00;;;;;9.85;84.92;98263.28;5039749;28;46441;-65
2024/02/11 01:55:00;;;;;;;;;7.50;2.00;;;;;9.86;85.18;98270.19;5073744;27;45280;-64
2024/02/11 01:57:26;;;;;;;;;6.50;3.00;;;;;9.87;84.98;98268.41;5073740;27;45372;-65
2024/02/11 01:59:51;;;;;;;;;5.75;4.25;;;;;9.85;85.05;98271.13;5073161;27;45304;-65
2024/02/11 02:02:18;;;;;;;;;4.75;4.00;;;;;9.90;85.16;98268.22;5040154;28;65971;-64
2024/02/11 02:04:43;;;;;;;;;5.00;3.25;;;;;9.93;85.07;98270.63;5040711;28;45354;-65
2024/02/11 02:07:09;;;;;;;;;4.00;3.00;;;;;9.90;84.95;98263.00;5040139;28;69462;-65
2024/02/11 02:09:34;;;;;;;;;8.25;3.50;;;;;9.96;85.02;98278.28;5056035;28;45324;-65
2024/02/11 02:12:04;;;;;;;;;8.25;5.00;;;;;9.99;84.89;98275.47;5042475;28;62260;-64
2024/02/11 02:14:29;;;;;;;;;8.50;4.00;;;;;10.00;84.66;98269.28;5071423;28;45302;-64
2024/02/11 02:16:55;;;;;;;;;3.00;3.00;;;;;10.00;84.87;98265.84;5040745;28;45499;-64
2024/02/11 02:19:20;;;;;;;;;11.00;3.25;;;;;10.03;84.57;98271.72;5039357;28;45573;-64
2024/02/11 02:21:47;;;;;;;;;3.75;2.75;;;;;10.04;84.59;98273.41;5040457;28;53269;-64
2024/02/11 02:24:13;;;;;;;;;6.00;2.50;;;;;10.07;84.46;98272.34;5038817;28;45509;-64
2024/02/11 02:26:38;;;;;;;;;7.75;4.50;;;;;10.08;84.38;98281.88;5073132;28;45376;-65
2024/02/11 02:29:04;;;;;;;;;4.50;3.00;;;;;10.07;84.64;98267.13;5039772;28;69646;-64
2024/02/11 02:31:29;;;;;;;;;3.50;3.00;;;;;10.10;84.54;98274.78;5039381;28;72318;-64
2024/02/11 02:33:54;;;;;;;;;2.50;2.50;;;;;10.11;84.37;98267.75;5039399;28;68318;-64
2024/02/11 02:36:19;;;;;;;;;4.00;2.00;;;;;10.12;84.66;98269.44;5039856;28;60296;-64
2024/02/11 02:38:45;;;;;;;;;4.25;3.00;;;;;10.12;84.39;98267.66;5072152;28;53914;-64
2024/02/11 02:41:11;;;;;;;;;3.50;2.00;;;;;10.13;84.55;98266.75;5075440;27;64901;-65
2024/02/11 02:43:36;;;;;;;;;4.50;2.50;;;;;10.15;84.28;98271.88;5039793;28;45268;-65
2024/02/11 02:46:02;;;;;;;;;6.75;3.00;;;;;10.14;84.18;98263.19;5041708;28;45682;-64
2024/02/11 02:48:28;;;;;;;;;4.50;3.00;;;;;10.16;84.15;98271.75;5040100;28;45187;-65
2024/02/11 02:50:54;;;;;;;;;10.25;3.00;;;;;10.17;84.58;98262.97;5040145;28;46936;-65
2024/02/11 02:53:19;;;;;;;;;5.00;2.75;;;;;10.19;83.94;98262.88;5040634;28;45199;-65
2024/02/11 02:55:46;;;;;;;;;5.00;4.00;;;;;10.19;84.17;98271.56;5039358;28;69398;-65
2024/02/11 02:58:13;;;;;;;;;5.00;3.00;;;;;10.18;84.38;98269.91;5039962;28;45477;-65
2024/02/11 03:00:39;;;;;;;;;7.00;3.00;;;;;10.19;84.05;98270.72;5039726;28;47174;-64
2024/02/11 03:03:06;;;;;;;;;7.25;3.25;;;;;10.20;83.99;98269.81;5039845;28;45240;-65
2024/02/11 03:05:34;;;;;;;;;4.75;3.00;;;;;10.20;84.11;98272.41;5038814;28;45345;-64
2024/02/11 03:08:00;;;;;;;;;3.75;2.75;;;;;10.17;84.00;98265.59;5039911;28;45202;-64
2024/02/11 03:10:25;;;;;;;;;12.00;2.00;;;;;10.18;84.32;98277.75;5039849;28;46045;-64
2024/02/11 03:12:51;;;;;;;;;7.00;4.00;;;;;10.18;84.03;98272.50;5055136;28;45428;-64
2024/02/11 03:15:16;;;;;;;;;3.00;1.75;;;;;10.17;84.15;98268.22;5055392;28;45451;-64
2024/02/11 03:17:41;;;;;;;;;6.25;2.00;;;;;10.18;84.35;98267.28;5038853;28;53157;-64
2024/02/11 03:20:08;;;;;;;;;9.25;3.00;;;;;10.17;84.50;98260.38;5040487;28;45704;-65
2024/02/11 03:22:33;;;;;;;;;6.25;2.00;;;;;10.19;84.53;98268.13;5039778;28;45437;-65
2024/02/11 03:24:58;;;;;;;;;2.00;1.00;;;;;10.21;84.44;98272.28;5038959;28;69692;-63
2024/02/11 03:27:24;;;;;;;;;3.50;1.00;;;;;10.23;84.21;98274.81;5038629;28;70090;-64
2024/02/11 03:29:49;;;;;;;;;2.50;1.00;;;;;10.23;84.28;98278.28;5038544;28;63128;-64
2024/02/11 03:32:15;;;;;;;;;3.25;2.25;;;;;10.23;84.16;98280.91;5038446;28;73191;-64
2024/02/11 03:34:41;;;;;;;;;3.00;1.75;;;;;10.24;84.12;98287.78;5055385;28;45437;-65
2024/02/11 03:37:06;;;;;;;;;4.75;3.00;;;;;10.22;84.29;98279.22;5037852;28;68203;-64
2024/02/11 03:39:32;;;;;;;;;3.50;2.75;;;;;10.21;84.08;98280.13;5044221;28;45410;-65
2024/02/11 03:41:57;;;;;;;;;5.75;2.00;;;;;10.20;84.20;98285.47;5034947;28;45213;-65
2024/02/11 03:44:22;;;;;;;;;4.75;2.00;;;;;10.20;84.06;98288.94;5038559;28;63647;-65
2024/02/11 03:46:48;;;;;;;;;4.00;2.00;;;;;10.20;84.49;98281.09;5038533;28;47968;-65
2024/02/11 03:49:14;;;;;;;;;3.75;2.00;;;;;10.20;84.51;98290.72;5021367;28;46672;-64
2024/02/11 03:51:40;;;;;;;;;3.75;3.25;;;;;10.19;84.41;98286.41;5037760;28;46294;-64
2024/02/11 03:54:05;;;;;;;;;5.75;1.50;;;;;10.18;84.23;98295.16;5037968;28;61203;-64
2024/02/11 03:56:33;;;;;;;;;4.50;2.00;;;;;10.17;84.55;98288.28;5038279;28;69987;-64
2024/02/11 03:58:58;;;;;;;;;2.25;1.75;;;;;10.17;84.05;98289.13;5039065;28;45522;-65
2024/02/11 04:01:24;;;;;;;;;4.75;2.50;;;;;10.18;84.53;98290.81;5038135;28;67803;-64
2024/02/11 04:03:49;;;;;;;;;4.00;2.00;;;;;10.20;84.44;98295.94;5039625;28;45430;-64
2024/02/11 04:06:16;;;;;;;;;1.50;1.50;;;;;10.20;84.09;98291.53;5038024;28;70873;-64
2024/02/11 04:08:41;;;;;;;;;4.00;1.50;;;;;10.23;84.27;98303.56;5037417;28;45382;-64
2024/02/11 04:11:07;;;;;;;;;3.50;2.00;;;;;10.24;84.06;98306.06;5039560;28;45343;-65
2024/02/11 04:13:33;;;;;;;;;6.50;1.75;;;;;10.24;84.23;98307.88;5039946;28;45571;-65
2024/02/11 04:16:05;;;;;;;;;4.00;1.00;;;;;10.26;84.12;98303.38;5040723;28;62233;-65
2024/02/11 04:18:32;;;;;;;;;5.75;2.75;;;;;10.26;84.21;98311.22;5042403;28;46098;-65
2024/02/11 04:20:58;;;;;;;;;2.50;2.00;;;;;10.23;84.34;98308.78;5041769;28;45766;-64
2024/02/11 04:23:24;;;;;;;;;4.25;2.25;;;;;10.27;83.88;98303.28;5042645;28;45255;-65
2024/02/11 04:25:50;;;;;;;;;5.00;2.00;;;;;10.29;84.06;98307.53;5042501;28;45619;-64
2024/02/11 04:28:19;;;;;;;;;1.75;1.75;;;;;10.28;84.01;98314.56;5042703;28;45958;-64
2024/02/11 04:30:44;;;;;;;;;3.75;1.75;;;;;10.28;83.63;98317.16;5042937;28;45319;-64
2024/02/11 04:33:20;;;;;;;;;3.50;1.75;;;;;10.27;83.86;98326.81;5042337;28;45350;-65
2024/02/11 04:35:46;;;;;;;;;2.00;2.00;;;;;10.27;83.69;98316.34;5042371;28;45355;-64
2024/02/11 04:38:15;;;;;;;;;2.75;1.75;;;;;10.28;83.73;98314.56;5041869;28;45416;-64
2024/02/11 04:40:40;;;;;;;;;3.75;1.00;;;;;10.29;83.84;98324.09;5042164;28;45682;-64
2024/02/11 04:43:06;;;;;;;;;10.25;1.75;;;;;10.28;83.57;98319.78;5040965;28;45298;-64
2024/02/11 04:45:32;;;;;;;;;3.00;2.00;;;;;10.30;83.53;98325.75;5042237;28;45502;-64
2024/02/11 04:47:59;;;;;;;;;4.00;1.75;;;;;10.31;83.75;98326.59;5074036;28;55034;-64
2024/02/11 04:50:26;;;;;;;;;10.50;2.00;;;;;10.32;83.46;98334.34;5042116;28;45449;-64
2024/02/11 04:52:56;;;;;;;;;3.75;1.00;;;;;10.33;83.55;98337.84;5041949;28;45342;-64
2024/02/11 04:55:28;;;;;;;;;8.25;2.75;;;;;10.32;83.63;98333.53;5035469;28;45597;-65
2024/02/11 04:58:04;;;;;;;;;3.25;1.00;;;;;10.34;83.14;98329.03;5038151;28;45300;-64
2024/02/11 05:00:33;;;;;;;;;1.75;1.00;;;;;10.34;83.37;98336.88;5040516;28;45746;-65
2024/02/11 05:02:59;;;;;;;;;4.00;1.75;;;;;10.33;83.06;98340.44;5041308;28;45474;-64
2024/02/11 05:05:28;;;;;;;;;2.00;1.00;;;;;10.31;83.53;98327.47;5041757;28;45399;-65
2024/02/11 05:07:57;;;;;;;;;6.75;1.75;;;;;10.36;83.15;98337.63;5041667;28;47103;-64
2024/02/11 05:10:27;;;;;;;;;3.25;1.00;;;;;10.33;83.05;98336.03;5041637;28;45415;-64
2024/02/11 05:12:53;;;;;;;;;0.25;0.00;;;;;10.34;83.25;98342.09;5041667;28;45345;-64
2024/02/11 05:15:20;;;;;;;;;2.50;1.00;;;;;10.32;83.02;98347.44;5046065;28;45513;-64
2024/02/11 05:17:54;;;;;;;;;5.00;2.75;;;;;10.34;83.11;98344.72;5041537;28;46197;-64
2024/02/11 05:20:27;;;;;;;;;6.25;1.75;;;;;10.33;83.36;98350.91;5048529;28;45280;-63
2024/02/11 05:22:55;;;;;;;;;6.00;1.00;;;;;10.35;83.27;98356.88;5041693;28;45307;-65
2024/02/11 05:25:21;;;;;;;;;3.50;1.75;;;;;10.36;83.33;98353.31;5041264;28;45232;-64
2024/02/11 05:27:56;;;;;;;;;2.75;1.00;;;;;10.37;83.04;98353.19;5040983;28;46281;-65
2024/02/11 05:30:26;;;;;;;;;4.75;1.00;;;;;10.35;83.02;98352.47;5073391;27;45285;-65
2024/02/11 05:32:56;;;;;;;;;4.00;1.00;;;;;10.38;82.90;98359.28;5041560;28;45347;-65
2024/02/11 05:35:23;;;;;;;;;4.25;2.00;;;;;10.40;82.96;98360.84;5074021;28;46633;-65
2024/02/11 05:37:58;;;;;;;;;4.75;1.00;;;;;10.39;82.91;98353.97;5041613;28;46145;-65
2024/02/11 05:40:27;;;;;;;;;2.25;1.00;;;;;10.41;83.00;98356.47;5037211;28;45898;-65
2024/02/11 05:42:53;;;;;;;;;4.00;2.00;;;;;10.41;83.09;98361.69;5041559;28;45292;-65
2024/02/11 05:45:20;;;;;;;;;9.75;2.00;;;;;10.42;83.18;98363.38;5073090;28;45461;-65
2024/02/11 05:47:47;;;;;;;;;4.25;1.00;;;;;10.41;82.80;98364.31;5041165;28;46438;-65
2024/02/11 05:50:12;;;;;;;;;2.75;0.25;;;;;10.40;82.53;98363.47;5041001;28;45944;-65
2024/02/11 05:52:39;;;;;;;;;3.75;1.00;;;;;10.40;82.56;98367.88;5041133;28;45466;-65
2024/02/11 05:55:04;;;;;;;;;3.75;1.50;;;;;10.38;82.52;98370.59;5040845;28;45397;-65
2024/02/11 05:57:30;;;;;;;;;2.00;0.00;;;;;10.39;82.76;98377.50;5039659;28;45473;-65
2024/02/11 05:59:57;;;;;;;;;1.75;0.75;;;;;10.39;82.78;98366.19;5038885;28;45422;-65
2024/02/11 06:02:22;;;;;;;;;4.00;2.00;;;;;10.37;83.10;98370.66;5041145;28;45363;-64
2024/02/11 06:04:49;;;;;;;;;7.50;2.00;;;;;10.36;83.26;98369.00;5040896;28;54096;-64
2024/02/11 06:07:17;;;;;;;;;3.50;0.75;;;;;10.34;83.13;98369.09;5046886;28;46565;-66
2024/02/11 06:09:43;;;;;;;;;3.00;1.00;;;;;10.34;83.00;98376.09;5039936;28;45999;-64
2024/02/11 06:12:09;;;;;;;;;3.75;1.75;;;;;10.34;82.88;98376.09;5041034;28;45342;-63
2024/02/11 06:14:36;;;;;;;;;4.00;1.00;;;;;10.33;83.20;98377.03;5078667;27;56303;-64
2024/02/11 06:17:04;;;;;;;;;3.75;1.00;;;;;10.34;82.79;98386.56;5040573;28;46037;-64
2024/02/11 06:19:29;;;;;;;;;1.25;1.00;;;;;10.35;82.86;98389.06;5040869;28;45456;-64
2024/02/11 06:21:55;;;;;;;;;2.00;1.00;;;;;10.35;83.38;98390.84;5040828;28;45264;-63
2024/02/11 06:24:24;;;;;;;;;3.75;1.50;;;;;10.33;83.40;98390.94;5040580;28;45431;-63
2024/02/11 06:26:50;;;;;;;;;1.00;0.00;;;;;10.32;83.79;98399.72;5040800;28;45449;-63
2024/02/11 06:29:15;;;;;;;;;3.75;1.00;;;;;10.31;83.94;98391.97;5040133;28;45421;-63
2024/02/11 06:31:41;;;;;;;;;3.75;1.00;;;;;10.27;84.04;98402.59;5040357;28;45306;-64
2024/02/11 06:34:06;;;;;;;;;2.50;1.00;;;;;10.25;84.00;98406.22;5039705;28;72262;-64
2024/02/11 06:36:36;;;;;;;;;2.75;1.50;;;;;10.24;84.02;98412.41;5040318;28;45811;-64
2024/02/11 06:39:03;;;;;;;;;2.75;1.00;;;;;10.24;84.16;98410.63;5040051;28;45878;-64
2024/02/11 06:41:31;;;;;;;;;1.25;0.00;;;;;10.22;84.15;98422.13;5048948;28;45473;-65
2024/02/11 06:44:03;;;;;;;;;3.50;0.00;;;;;10.20;84.10;98418.78;5039451;28;45484;-64
2024/02/11 06:46:29;;;;;;;;;3.00;0.25;;;;;10.20;84.36;98416.16;5040062;28;45583;-64
2024/02/11 06:48:54;;;;;;;;;4.00;0.75;;;;;10.16;84.08;98418.09;5039047;28;45288;-64
2024/02/11 06:51:19;;;;;;;;;1.00;1.00;;;;;10.14;84.51;98416.53;5040043;28;45298;-64
2024/02/11 06:53:45;;;;;;;;;2.75;1.25;;;;;10.15;84.18;98434.75;5040134;28;45330;-64
2024/02/11 06:56:12;;;;;;;;;4.00;1.00;;;;;10.14;84.35;98427.81;5039121;28;74584;-64
2024/02/11 06:58:37;;;;;;;;;3.00;0.50;;;;;10.14;84.80;98440.06;5040260;28;45371;-64
2024/02/11 07:01:04;;;;;;;;;1.00;1.00;;;;;10.12;84.54;98436.72;5038917;28;45295;-64
2024/02/11 07:03:30;;;;;;;;;3.00;1.00;;;;;10.12;85.06;98440.16;5040221;28;46257;-64
2024/02/11 07:05:56;;;;;;;;;4.00;2.00;;;;;10.08;84.99;98436.88;5040250;28;45467;-65
2024/02/11 07:08:22;;;;;;;;;2.75;1.00;;;;;10.11;85.05;98446.34;5037894;28;71755;-64
2024/02/11 07:10:48;;;;;;;;;1.00;1.00;;;;;10.11;85.00;98448.94;5038790;28;45548;-65
2024/02/11 07:13:14;;;;;;;;;2.00;1.00;;;;;10.11;84.42;98450.69;5039275;28;45489;-64
2024/02/11 07:15:39;;;;;;;;;1.00;1.00;;;;;10.09;84.57;98456.00;5044870;28;71880;-64
2024/02/11 07:18:06;;;;;;;;;2.00;1.00;;;;;10.08;84.85;98457.78;5055220;28;45436;-65
2024/02/11 07:20:31;;;;;;;;;3.25;1.50;;;;;10.11;84.70;98462.00;5039773;28;45446;-64
2024/02/11 07:22:56;;;;;;;;;4.00;1.00;;;;;10.13;84.51;98467.97;5039575;28;48986;-64
2024/02/11 07:25:22;;;;;;;;;2.00;1.00;;;;;10.16;84.52;98467.75;5039055;28;60605;-65
2024/02/11 07:27:47;;;;;;;;;2.25;0.00;;;;;10.15;84.63;98466.09;5038450;28;72034;-65
2024/02/11 07:30:13;;;;;;;;;2.75;0.00;;;;;10.19;84.33;98469.38;5046222;28;45238;-64
2024/02/11 07:32:41;;;;;;;;;0.75;0.75;;;;;10.20;84.49;98477.13;5037969;28;45637;-64
2024/02/11 07:35:07;;;;;;;;;3.00;1.00;;;;;10.23;84.61;98471.72;5039574;28;45417;-64
2024/02/11 07:37:32;;;;;;;;;1.75;1.00;;;;;10.25;84.36;98482.03;5046125;28;45412;-64
2024/02/11 07:39:57;;;;;;;;;2.25;1.00;;;;;10.27;84.33;98480.19;5057645;28;68209;-64
2024/02/11 07:42:23;;;;;;;;;6.50;0.75;;;;;10.27;83.89;98483.66;5037362;28;73140;-64
2024/02/11 07:44:48;;;;;;;;;5.25;2.00;;;;;10.30;84.04;98487.00;5038187;28;67609;-64
2024/02/11 07:47:14;;;;;;;;;4.00;1.00;;;;;10.32;83.91;98493.81;5039321;28;45402;-66
2024/02/11 07:49:39;;;;;;;;;1.00;0.00;;;;;10.35;83.87;98498.88;5039066;28;45401;-64
2024/02/11 07:52:06;;;;;;;;;3.50;1.50;;;;;10.34;83.73;98489.38;5045251;28;71059;-64
2024/02/11 07:54:33;;;;;;;;;6.75;1.00;;;;;10.40;83.54;98493.38;5046822;28;46318;-65
2024/02/11 07:56:59;;;;;;;;;3.50;1.00;;;;;10.43;83.28;98507.09;5043011;28;45738;-65
2024/02/11 07:59:24;;;;;;;;;2.25;0.50;;;;;10.44;83.28;98506.13;5041418;28;45376;-64
2024/02/11 08:01:49;;;;;;;;;2.00;1.00;;;;;10.47;83.03;98496.44;5041783;28;72094;-65
2024/02/11 08:04:16;;;;;;;;;2.00;1.25;;;;;10.50;83.07;98504.06;5041231;28;50393;-65
2024/02/11 08:06:42;;;;;;;;;4.50;0.75;;;;;10.53;83.09;98509.97;5043139;28;45810;-64
2024/02/11 08:09:09;;;;;;;;;1.50;0.75;;;;;10.54;82.77;98505.59;5042546;28;45352;-65
2024/02/11 08:11:35;;;;;;;;;5.00;0.00;;;;;10.57;82.47;98511.47;5042930;28;45303;-64
2024/02/11 08:14:01;;;;;;;;;4.00;0.00;;;;;10.59;82.04;98519.22;5042435;28;46192;-64
2024/02/11 08:16:26;;;;;;;;;1.50;0.75;;;;;10.61;82.40;98519.97;5048581;28;73564;-65
2024/02/11 08:18:54;;;;;;;;;1.50;0.75;;;;;10.66;81.95;98524.88;5042623;28;45477;-65
2024/02/11 08:21:19;;;;;;;;;3.00;1.00;;;;;10.67;81.61;98523.97;5047625;28;45331;-65
2024/02/11 08:23:45;;;;;;;;;6.00;1.00;;;;;10.68;81.69;98523.00;5045670;28;45218;-64
2024/02/11 08:26:10;;;;;;;;;4.50;1.00;;;;;10.74;81.38;98528.69;5045164;28;73226;-65
2024/02/11 08:28:36;;;;;;;;;4.00;1.00;;;;;10.76;81.19;98516.34;5077669;27;45260;-64
2024/02/11 08:31:01;;;;;;;;;2.00;0.00;;;;;10.81;81.36;98518.69;5041436;28;67308;-65
2024/02/11 08:33:26;;;;;;;;;3.00;1.00;;;;;10.85;81.33;98522.78;5041337;28;72401;-65
2024/02/11 08:35:52;;;;;;;;;1.00;1.00;;;;;10.92;80.45;98536.31;5042253;28;45285;-64
2024/02/11 08:38:17;;;;;;;;;3.25;1.00;;;;;10.98;80.51;98534.16;5042237;28;45328;-64
2024/02/11 08:40:43;;;;;;;;;3.25;1.50;;;;;11.02;80.13;98542.66;5043197;28;73118;-64
2024/02/11 08:43:08;;;;;;;;;4.25;1.00;;;;;11.08;80.27;98537.00;5042810;28;47826;-65
2024/02/11 08:45:34;;;;;;;;;2.00;0.00;;;;;11.12;79.72;98542.88;5041962;28;45431;-64
2024/02/11 08:47:59;;;;;;;;;3.75;1.75;;;;;11.18;79.99;98552.97;5042240;28;45430;-64
2024/02/11 08:50:27;;;;;;;;;1.25;0.00;;;;;11.23;79.54;98539.59;5040934;28;72945;-65
2024/02/11 08:52:53;;;;;;;;;2.00;1.00;;;;;11.25;79.10;98545.56;5041918;28;45503;-64
2024/02/11 08:55:18;;;;;;;;;2.50;1.00;;;;;11.27;79.10;98541.91;5041080;28;45203;-64
2024/02/11 08:57:46;;;;;;;;;4.25;1.00;;;;;11.27;78.72;98541.91;5041698;28;48865;-64
2024/02/11 09:00:12;;;;;;;;;2.75;2.00;;;;;11.26;78.61;98553.31;5043234;28;45158;-64
2024/02/11 09:02:38;;;;;;;;;2.25;0.25;;;;;11.27;78.75;98548.91;5044421;28;47231;-65
2024/02/11 09:05:04;;;;;;;;;5.75;1.00;;;;;11.29;78.52;98565.38;5057743;28;45268;-65
2024/02/11 09:07:29;;;;;;;;;3.00;1.00;;;;;11.26;78.18;98555.94;5054169;28;45418;-64
2024/02/11 09:09:55;;;;;;;;;0.75;0.75;;;;;11.32;78.19;98563.38;5060791;28;45542;-65
2024/02/11 09:12:20;;;;;;;;;3.25;1.00;;;;;11.39;78.38;98558.59;5058749;28;45371;-65
2024/02/11 09:14:47;;;;;;;;;3.00;1.00;;;;;11.39;78.37;98564.66;5039433;28;73287;-65
2024/02/11 09:17:12;;;;;;;;;3.00;1.00;;;;;11.44;78.25;98569.63;5050833;28;45421;-65
2024/02/11 09:19:38;;;;;;;;;1.00;1.00;;;;;11.53;77.83;98563.75;5044768;28;45323;-65
2024/02/11 09:22:05;;;;;;;;;3.00;1.00;;;;;11.61;77.84;98567.66;5053777;28;56808;-64
2024/02/11 09:24:31;;;;;;;;;3.00;1.00;;;;;11.66;77.49;98574.28;5036619;28;45720;-64
2024/02/11 09:26:57;;;;;;;;;3.00;1.00;;;;;11.70;77.53;98565.25;5060328;28;45363;-65
2024/02/11 09:29:22;;;;;;;;;1.00;1.00;;;;;11.77;76.68;98582.28;5076304;28;45414;-64
2024/02/11 09:31:49;;;;;;;;;3.75;1.00;;;;;11.81;76.73;98571.56;5060000;28;45635;-64
2024/02/11 09:34:15;;;;;;;;;3.25;2.00;;;;;11.83;76.44;98572.28;5056367;28;45413;-65
2024/02/11 09:36:40;;;;;;;;;2.00;1.25;;;;;11.86;76.34;98580.78;5055025;28;45334;-64
2024/02/11 09:39:05;;;;;;;;;1.50;1.50;;;;;11.87;76.23;98576.41;5052642;28;72155;-65
2024/02/11 09:41:32;;;;;;;;;3.00;1.00;;;;;11.87;76.05;98577.25;5047074;28;46202;-64
2024/02/11 09:44:02;;;;;;;;;4.00;1.00;;;;;11.84;75.78;98579.22;5053418;28;45186;-64
2024/02/11 09:46:28;;;;;;;;;1.00;1.00;;;;;11.87;75.75;98582.47;5040945;28;45234;-64
2024/02/11 09:48:55;;;;;;;;;1.00;1.00;;;;;11.91;75.58;98589.22;5041128;28;45323;-64
2024/02/11 09:51:23;;;;;;;;;0.50;0.50;;;;;11.95;75.30;98589.84;5042413;28;47065;-64
2024/02/11 09:53:54;;;;;;;;;2.00;1.25;;;;;12.02;75.21;98600.78;5041252;28;45236;-64
2024/02/11 09:56:19;;;;;;;;;2.00;0.00;;;;;12.08;75.18;98580.22;5041175;28;45291;-64
2024/02/11 09:58:45;;;;;;;;;2.25;1.00;;;;;12.11;74.30;98585.28;5040563;28;46569;-65
2024/02/11 10:01:12;;;;;;;;;3.00;1.00;;;;;12.15;74.37;98593.78;5039578;28;74394;-65
2024/02/11 10:03:38;;;;;;;;;1.25;1.00;;;;;12.19;74.53;98594.41;5043908;28;45274;-65
2024/02/11 10:06:04;;;;;;;;;2.75;2.00;;;;;12.19;74.03;98584.75;5043762;28;45476;-64
2024/02/11 10:08:30;;;;;;;;;2.75;1.00;;;;;12.19;73.99;98594.41;5036482;28;45832;-65
2024/02/11 10:10:56;;;;;;;;;6.50;1.00;;;;;12.22;74.31;98599.44;5056735;28;46737;-64
2024/02/11 10:13:22;;;;;;;;;6.00;1.00;;;;;12.19;73.57;98602.28;5038396;28;45694;-63
2024/02/11 10:15:49;;;;;;;;;4.75;3.00;;;;;12.14;73.39;98600.78;5039977;28;45390;-65
2024/02/11 10:18:17;;;;;;;;;6.00;2.75;;;;;12.14;73.24;98592.09;5040051;28;45478;-75
2024/02/11 10:20:46;;;;;;;;;1.25;1.25;;;;;12.18;73.54;98611.91;5037478;28;46229;-78
2024/02/11 10:23:14;;;;;;;;;6.75;2.00;;;;;12.22;73.33;98605.53;5050975;28;45312;-70
2024/02/11 10:25:39;;;;;;;;;4.50;1.50;;;;;12.25;72.84;98610.56;5047529;28;45484;-73
2024/02/11 10:28:06;;;;;;;;;3.00;2.25;;;;;12.26;73.12;98601.72;5040148;28;57529;-70
2024/02/11 10:30:34;;;;;;;;;5.50;2.00;;;;;12.28;72.57;98612.13;5038635;28;46398;-83
2024/02/11 10:33:01;;;;;;;;;3.50;2.00;;;;;12.32;72.76;98605.72;5038518;28;45754;-70
2024/02/11 10:35:28;;;;;;;;;4.00;2.00;;;;;12.39;72.37;98614.84;5041766;28;45242;-73
2024/02/11 10:37:55;;;;;;;;;5.00;2.00;;;;;12.46;72.09;98610.84;5034479;28;45508;-67
2024/02/11 10:40:23;;;;;;;;;5.50;2.00;;;;;12.49;72.09;98615.91;5038481;28;46228;-68
2024/02/11 10:42:50;;;;;;;;;5.50;1.50;;;;;12.53;71.82;98619.97;5051870;28;45384;-67
2024/02/11 10:45:16;;;;;;;;;3.75;3.00;;;;;12.54;71.52;98623.47;5050694;28;45455;-71
2024/02/11 10:47:41;;;;;;;;;5.00;1.00;;;;;12.57;71.25;98623.25;5042697;28;69804;-66
2024/02/11 10:50:07;;;;;;;;;1.25;1.00;;;;;12.59;70.94;98621.38;5079292;27;75645;-74
2024/02/11 10:52:55;;;;;;;;;4.25;2.25;;;;;12.66;70.75;98619.13;5044307;28;45285;-73
2024/02/11 10:55:22;;;;;;;;;5.50;2.25;;;;;12.69;70.50;98613.66;5045768;28;45321;-71
2024/02/11 10:57:53;;;;;;;;;4.00;1.75;;;;;12.68;70.54;98620.72;5040327;28;45514;-72
2024/02/11 11:00:24;;;;;;;;;1.50;1.00;;;;;12.72;70.73;98623.97;5076870;27;46336;-66
2024/02/11 11:02:52;;;;;;;;;2.75;2.25;;;;;12.79;70.70;98617.34;5043526;28;45507;-73
2024/02/11 11:05:20;;;;;;;;;3.75;2.00;;;;;12.88;70.57;98618.47;5045347;28;45385;-79
2024/02/11 11:07:48;;;;;;;;;3.75;2.00;;;;;12.94;70.29;98628.53;5039870;28;45516;-72
2024/02/11 11:10:14;;;;;;;;;3.75;2.00;;;;;13.00;69.76;98636.00;5039387;28;46246;-71
2024/02/11 11:12:49;;;;;;;;;3.50;3.00;;;;;13.10;69.83;98618.63;5042180;28;45157;-72
2024/02/11 11:15:26;;;;;;;;;4.50;2.50;;;;;13.24;69.60;98622.91;5041783;28;45273;-72
2024/02/11 11:17:53;;;;;;;;;3.25;3.25;;;;;13.32;69.28;98619.75;5043206;28;45242;-71
2024/02/11 11:20:19;;;;;;;;;4.75;3.00;;;;;13.34;68.83;98617.00;5043576;28;45387;-71
2024/02/11 11:22:51;;;;;;;;;1.50;1.00;;;;;13.34;68.11;98617.84;5043521;28;45353;-72
2024/02/11 11:25:21;;;;;;;;;2.00;1.00;;;;;13.29;68.16;98620.75;5042746;28;45417;-71
2024/02/11 11:27:48;;;;;;;;;4.00;1.75;;;;;13.22;68.21;98619.53;5070260;27;45444;-72
2024/02/11 11:30:14;;;;;;;;;3.50;2.25;;;;;13.11;68.37;98632.59;5043777;28;45889;-71